Private Wetterstation Nrnberg - Katzwang
Wetterdaten: Mai 2016
Datum Temp. A. Feuchte A. Luftdruck Regen Wind Richtung Taupunkt Windchill Windben
01.05.2016 13,6 C 58 % 1016 hPa 0,0 l/m 15,1 km/h O-NO 5,4 C 9,9 C 12,6 km/h
02.05.2016 13,7 C 57 % 1018 hPa 0,0 l/m 4,7 km/h O 4,5 C 12,9 C 3,9 km/h
03.05.2016 11,5 C 66 % 1017 hPa 0,0 l/m 12,6 km/h N 5,0 C 8,1 C 10,4 km/h
04.05.2016 10,8 C 53 % 1024 hPa 0,0 l/m 16,1 km/h O-NO 0,9 C 5,8 C 13,3 km/h
05.05.2016 13,3 C 65 % 1020 hPa 0,0 l/m 1,9 km/h S 6,6 C 13,2 C 1,6 km/h
06.05.2016 15,6 C 57 % 1013 hPa 0,0 l/m 3,2 km/h S 6,2 C 15,3 C 2,6 km/h
07.05.2016 18,1 C 50 % 1010 hPa 0,0 l/m 4,7 km/h O 6,4 C 17,7 C 3,9 km/h
08.05.2016 17,8 C 52 % 1011 hPa 0,0 l/m 18,3 km/h O 7,1 C 14,4 C 15,1 km/h
09.05.2016 19,1 C 55 % 1012 hPa 0,0 l/m 1,6 km/h O 9,1 C 19,1 C 1,3 km/h
10.05.2016 18,1 C 66 % 1008 hPa 0,0 l/m 0,0 km/h S-SO 10,7 C 18,1 C 0,0 km/h
11.05.2016 17,1 C 65 % 1002 hPa 0,0 l/m 7,6 km/h O 10,2 C 15,8 C 6,3 km/h
12.05.2016 14,8 C 77 % 996 hPa 1,6 l/m 17,0 km/h O 10,8 C 11,0 C 17,2 km/h
13.05.2016 15,7 C 77 % 998 hPa 2,1 l/m 11,3 km/h N-NW 11,6 C 13,0 C 9,4 km/h
14.05.2016 12,3 C 64 % 1007 hPa 0,0 l/m 20,8 km/h N-NW 5,5 C 6,7 C 25,0 km/h
15.05.2016 7,5 C 68 % 1016 hPa 0,5 l/m 8,8 km/h N-NW 1,9 C 4,3 C 7,3 km/h
16.05.2016 7,7 C 77 % 1016 hPa 0,5 l/m 17,3 km/h W-NW 3,9 C 1,5 C 21,1 km/h
17.05.2016 9,9 C 66 % 1016 hPa 0,0 l/m 4,7 km/h W-NW 3,5 C 8,7 C 3,9 km/h
18.05.2016 14,2 C 57 % 1009 hPa 0,0 l/m 5,7 km/h S 4,8 C 13,7 C 4,7 km/h
19.05.2016 12,0 C 81 % 1011 hPa 7,3 l/m 1,3 km/h N-NW 8,8 C 12,0 C 1,0 km/h
20.05.2016 14,8 C 65 % 1018 hPa 0,5 l/m 3,5 km/h NW 7,7 C 14,2 C 2,9 km/h
21.05.2016 18,8 C 60 % 1015 hPa 0,0 l/m 8,2 km/h S 10,2 C 18,2 C 6,8 km/h
22.05.2016 21,3 C 63 % 1008 hPa 2,1 l/m 10,4 km/h S 13,0 C 20,7 C 8,6 km/h
23.05.2016 12,9 C 79 % 1009 hPa 0,5 l/m 6,9 km/h N-NW 9,2 C 11,1 C 5,8 km/h
24.05.2016 11,0 C 83 % 1011 hPa 15,5 l/m 3,5 km/h N-NW 8,2 C 10,0 C 2,9 km/h
25.05.2016 12,7 C 79 % 1013 hPa 0,0 l/m 3,8 km/h NW 9,2 C 12,2 C 3,2 km/h
26.05.2016 18,5 C 64 % 1013 hPa 0,0 l/m 5,7 km/h O 11,1 C 17,8 C 4,7 km/h
27.05.2016 19,5 C 69 % 1012 hPa 1,0 l/m 10,1 km/h N 13,4 C 17,6 C 8,4 km/h
28.05.2016 20,2 C 72 % 1009 hPa 0,0 l/m 2,8 km/h O 14,7 C 20,2 C 2,3 km/h
29.05.2016 18,4 C 75 % 1003 hPa 24,9 l/m 15,4 km/h O 13,7 C 15,7 C 12,8 km/h
30.05.2016 16,4 C 81 % 1004 hPa 6,2 l/m 19,5 km/h S-SO 13,2 C 11,7 C 19,1 km/h
31.05.2016 18,7 C 68 % 1009 hPa 0,0 l/m 0,0 km/h W-NW 12,4 C 18,7 C 0,0 km/h
Min-Datum 05.05.16 06.05.16 12.05.16 12 Tage 01.05.16 - 04.05.16 04.05.16 01.05.16
Min-Zeit 03:10 16:40 16:50 - 00:10 - 19:10 08:40 00:10
Minimum 2,3 C 29 % 995 hPa - 0,0 km/h - -1,2 C -5,3 C 0,0 km/h
Max-Datum 22.05.16 31.05.16 04.05.16 29.05.16 01.05.16 - 29.05.16 22.05.16 15.05.16
Max-Zeit 13:50 06:50 07:20 21:30 14:00 - 14:00 13:50 17:40
Maximum 32,7 C 84 % 1025 hPa 24,9 l/m 78,1 km/h
O-NO
- 19,1 C 32,6 C 84,6 km/h
N-NW
Durchschnitt 15,0 C 67 % 1011 hPa #62,7 l/m 8,5 km/h N-NW 8,3 C 13,2 C 7,7 km/h

Durchschnitt Minimum Temp.8,1 C
Durchschnitt Maximum Temp.22,2 C